Pagina principale
METAR-TAF:

METAR-TAF

Aeroporti :

Polokwane, Sudafrica

latitudine: 23-50-43S, longitudine: 29-27-31E, altezza: 1242 m

Osservazione

Il bollettino è stato emesso 18 minuti fa, alle 16:00 UTC
Vento 10 kt da nord-est
Temperature 18°C
Umidità 39%
Pressione 1029 hPa
Visibilità 10 km o più
nessuna nube inferiore a 1500 m e nessun cumulonembo

METAR: FAPP 231600Z 05010KT CAVOK 18/04 Q1029 NOSIG

Ora: 18:18 (16:18 UTC)

Previsione

Il bollettino è stato emesso 7 ore e 18 minuti fa, alle 09:00 UTC
Previsione valida dal 23 alle 10 UTC al 23 alle 18 UTC
Vento 10 kt da est/nord-est
Visibilità 10 km o più
nessuna nube inferiore a 1500 m e nessun cumulonembo

TAF: FAPP 230900Z 2310/2318 06010KT CAVOK TX24/2313Z TN19/2318Z

Osservazioni e previsioni meteorologiche di più di 4000 aeroporti (messaggi METAR e TAF).

Le stazioni disponibili sono rappresentate dai dischi gialli e rossi sulla carta.

Puntare il mouse per vedere il nome della stazione.

Clicca sopra per visualizzare le osservazioni e previsioni meteorologiche.

Per cambiare la mappa : fare clic sui pulsanti verdi con una croce nera per ingrandire, il pulsante verde con un trattino per diminuire, o sulla freccia verde per le mappe adiacenti.


METAR-TAF: